Time;durP1;ratioP1;P1;durP2;ratioP2;P2;SDS_P1;SDS_P2;PMS_P1;PMS_P2;Temp;Humidity;BMP_temperature;BMP_pressure;BME280_temperature;BME280_humidity;BME280_pressure;Samples;Min_cycle;Max_cycle;Signal;HPM_P1;HPM_P2
2021/08/26 00:00:20;;;;;;;15.30;7.50;;;;;;;13.27;60.44;97919.53;5031403;28;20424;-69
2021/08/26 00:08:15;;;;;;;19.05;7.93;;;;;;;13.27;60.15;97915.97;5031486;28;20072;-69
2021/08/26 00:10:41;;;;;;;17.05;8.20;;;;;;;13.28;60.25;97918.38;5013214;28;20072;-69
2021/08/26 00:13:07;;;;;;;15.80;8.10;;;;;;;13.29;60.40;97920.00;5029438;28;20032;-69
2021/08/26 00:15:36;;;;;;;17.80;8.75;;;;;;;13.32;60.17;97915.81;5011912;28;20053;-70
2021/08/26 00:18:03;;;;;;;17.00;8.38;;;;;;;13.33;60.41;97904.44;5029907;28;20025;-69
2021/08/26 00:20:30;;;;;;;17.00;8.20;;;;;;;13.37;60.32;97910.13;5029948;28;20072;-71
2021/08/26 00:22:55;;;;;;;19.73;8.18;;;;;;;13.38;60.52;97900.72;5031031;28;20470;-69
2021/08/26 00:25:21;;;;;;;18.50;8.20;;;;;;;13.39;60.31;97894.88;5028865;28;20413;-70
2021/08/26 00:27:46;;;;;;;18.13;8.00;;;;;;;13.42;60.42;97903.66;5028219;28;20044;-70
2021/08/26 00:30:12;;;;;;;19.52;8.45;;;;;;;13.45;60.32;97898.28;5029681;28;20029;-70
2021/08/26 00:32:37;;;;;;;18.25;8.48;;;;;;;13.46;60.36;97888.88;5029945;28;20026;-70
2021/08/26 00:35:03;;;;;;;17.10;8.73;;;;;;;13.47;60.48;97881.44;5028756;28;20034;-69
2021/08/26 00:37:29;;;;;;;17.73;8.55;;;;;;;13.49;60.36;97885.47;5030314;28;20044;-70
2021/08/26 00:39:54;;;;;;;17.58;7.97;;;;;;;13.51;60.30;97876.88;5029688;28;20037;-69
2021/08/26 00:42:19;;;;;;;18.30;8.35;;;;;;;13.54;60.34;97876.22;5011911;28;20547;-69
2021/08/26 00:44:45;;;;;;;17.67;7.82;;;;;;;13.53;60.40;97874.63;5011356;28;20021;-70
2021/08/26 00:47:11;;;;;;;17.10;7.55;;;;;;;13.54;60.53;97866.00;5029633;28;20044;-69
2021/08/26 00:49:36;;;;;;;13.25;7.20;;;;;;;13.57;60.52;97863.72;5030338;28;20446;-70
2021/08/26 00:52:02;;;;;;;17.13;7.68;;;;;;;13.60;60.49;97872.16;5029608;28;20370;-69
2021/08/26 00:54:28;;;;;;;17.25;7.78;;;;;;;13.60;60.48;97863.06;5011516;28;20026;-69
2021/08/26 00:56:55;;;;;;;15.63;7.90;;;;;;;13.61;60.35;97860.00;5029257;28;20033;-70
2021/08/26 00:59:21;;;;;;;13.10;7.05;;;;;;;13.64;60.44;97853.81;5029951;28;20025;-69
2021/08/26 01:01:47;;;;;;;17.48;7.35;;;;;;;13.63;60.63;97856.91;5029768;28;20389;-69
2021/08/26 01:04:25;;;;;;;14.23;7.40;;;;;;;13.62;60.54;97855.28;5029843;28;20033;-70
2021/08/26 01:06:53;;;;;;;15.35;7.68;;;;;;;13.62;60.52;97856.09;5029109;28;20033;-68
2021/08/26 01:09:23;;;;;;;13.52;7.00;;;;;;;13.64;60.87;97850.25;5027727;28;20033;-69
2021/08/26 01:11:49;;;;;;;13.35;6.95;;;;;;;13.67;60.42;97844.88;5011900;28;20049;-69
2021/08/26 01:14:15;;;;;;;16.80;7.85;;;;;;;13.70;60.66;97844.22;5028457;28;20148;-70
2021/08/26 01:16:41;;;;;;;13.63;7.25;;;;;;;13.73;60.84;97839.16;5009648;28;20578;-69
2021/08/26 01:19:07;;;;;;;14.45;7.50;;;;;;;13.70;60.78;97843.41;5011655;28;20112;-69
2021/08/26 01:21:33;;;;;;;13.43;7.20;;;;;;;13.68;60.97;97832.72;5029548;28;20025;-69
2021/08/26 01:24:06;;;;;;;15.23;7.28;;;;;;;13.71;60.94;97820.22;5028888;28;20096;-69
2021/08/26 01:26:40;;;;;;;14.68;7.22;;;;;;;13.77;60.92;97821.66;5029241;28;20075;-70
2021/08/26 01:29:06;;;;;;;15.07;7.50;;;;;;;13.78;60.86;97822.44;5028655;28;20504;-69
2021/08/26 01:31:32;;;;;;;15.10;7.00;;;;;;;13.79;61.18;97818.56;5029222;28;20030;-69
2021/08/26 01:33:58;;;;;;;14.38;7.00;;;;;;;13.81;60.95;97816.28;5009894;28;20013;-70
2021/08/26 01:36:31;;;;;;;14.27;7.68;;;;;;;13.84;61.39;97819.19;5028978;28;20029;-69
2021/08/26 01:39:06;;;;;;;14.55;7.10;;;;;;;13.87;61.07;97814.13;5032889;28;20052;-70
2021/08/26 01:41:51;;;;;;;14.73;7.32;;;;;;;13.86;60.77;97813.34;5033341;28;20029;-69
2021/08/26 01:44:21;;;;;;;14.90;7.18;;;;;;;13.88;61.28;97811.03;5032542;28;20026;-69
2021/08/26 01:46:47;;;;;;;;;;;;;;;13.86;60.92;97813.34;5033524;28;20025;-70
2021/08/26 01:49:12;;;;;;;14.77;7.05;;;;;;;13.83;61.05;97805.72;5033131;28;19920;-69
2021/08/26 01:51:41;;;;;;;14.30;6.80;;;;;;;13.81;60.89;97802.50;5032606;28;20468;-70
2021/08/26 01:54:08;;;;;;;13.93;7.45;;;;;;;13.78;61.14;97806.75;5033084;28;20101;-70
2021/08/26 01:56:35;;;;;;;14.07;6.95;;;;;;;13.74;61.17;97794.75;5015749;28;20087;-70
2021/08/26 01:59:00;;;;;;;13.07;6.35;;;;;;;13.72;60.93;97791.53;5016163;28;20029;-70
2021/08/26 02:01:26;;;;;;;12.82;6.43;;;;;;;13.69;61.01;97781.19;5016357;28;20028;-69
2021/08/26 02:03:51;;;;;;;13.40;7.03;;;;;;;13.69;61.13;97779.22;5033706;28;20064;-70
2021/08/26 02:06:16;;;;;;;13.55;6.78;;;;;;;13.69;61.36;97775.66;5033678;28;20112;-69
2021/08/26 02:08:42;;;;;;;11.73;6.63;;;;;;;13.68;61.32;97774.84;5033186;28;20025;-69
2021/08/26 02:11:07;;;;;;;14.05;6.93;;;;;;;13.68;61.28;97777.59;5033237;28;20022;-70
2021/08/26 02:13:33;;;;;;;13.55;6.82;;;;;;;13.71;61.75;97767.88;5032077;28;20018;-70
2021/08/26 02:15:58;;;;;;;13.43;6.50;;;;;;;13.69;60.86;97765.44;5033277;28;20457;-70
2021/08/26 02:18:24;;;;;;;11.63;6.45;;;;;;;13.72;61.54;97768.66;5033565;28;20500;-70
2021/08/26 02:20:49;;;;;;;13.73;6.38;;;;;;;13.68;61.45;97766.56;5033755;28;20021;-70
2021/08/26 02:23:15;;;;;;;11.65;6.72;;;;;;;13.69;61.69;97767.41;5033095;28;20418;-69
2021/08/26 02:25:40;;;;;;;11.10;6.28;;;;;;;13.69;61.67;97764.66;5032361;28;20027;-70
2021/08/26 02:28:06;;;;;;;12.55;6.82;;;;;;;13.69;61.35;97757.16;5014341;28;20037;-70
2021/08/26 02:30:31;;;;;;;14.10;6.18;;;;;;;13.70;61.39;97758.00;5032438;28;20030;-70
2021/08/26 02:32:56;;;;;;;13.85;6.35;;;;;;;13.70;61.82;97744.22;5032255;28;20460;-71
2021/08/26 02:35:22;;;;;;;12.07;6.63;;;;;;;13.68;61.54;97747.28;5012468;28;20083;-70
2021/08/26 02:37:47;;;;;;;15.38;6.40;;;;;;;13.69;61.63;97748.09;5032475;28;20044;-70
2021/08/26 02:40:12;;;;;;;12.23;6.55;;;;;;;13.72;61.44;97738.34;5032076;28;20083;-71
2021/08/26 02:42:38;;;;;;;11.93;6.53;;;;;;;13.70;61.49;97728.47;5031738;28;20044;-70
2021/08/26 02:45:04;;;;;;;14.00;6.57;;;;;;;13.69;61.71;97740.63;5032189;28;20484;-70
2021/08/26 02:47:30;;;;;;;15.00;7.25;;;;;;;13.71;61.63;97740.31;5032118;28;20039;-69
2021/08/26 02:49:55;;;;;;;12.73;6.55;;;;;;;13.72;61.93;97732.84;5030891;28;20026;-70
2021/08/26 02:52:21;;;;;;;12.65;6.43;;;;;;;13.73;61.76;97735.28;5031175;28;20124;-69
2021/08/26 02:54:49;;;;;;;10.88;6.18;;;;;;;13.77;61.87;97732.66;5013677;28;20025;-70
2021/08/26 02:57:14;;;;;;;13.43;6.95;;;;;;;13.81;61.89;97731.66;5032049;28;20026;-70
2021/08/26 02:59:40;;;;;;;15.15;7.28;;;;;;;13.83;61.97;97728.56;5031830;28;20492;-70
2021/08/26 03:02:05;;;;;;;11.73;6.80;;;;;;;13.85;62.22;97723.50;5032093;28;20448;-70
2021/08/26 03:04:31;;;;;;;12.93;6.65;;;;;;;13.87;61.91;97723.16;5032079;28;20032;-70
2021/08/26 03:06:56;;;;;;;14.38;7.22;;;;;;;13.88;61.68;97727.53;5031654;28;20088;-70
2021/08/26 03:09:22;;;;;;;15.52;7.50;;;;;;;13.89;61.58;97729.97;5014000;28;20120;-70
2021/08/26 03:11:47;;;;;;;15.13;6.95;;;;;;;13.85;61.92;97720.75;5031111;28;20025;-69
2021/08/26 03:14:13;;;;;;;14.68;6.97;;;;;;;13.86;61.63;97722.38;5031298;28;20409;-69
2021/08/26 03:16:38;;;;;;;14.77;6.75;;;;;;;13.88;61.70;97711.81;5031732;28;20071;-69
2021/08/26 03:19:04;;;;;;;13.23;6.60;;;;;;;13.91;61.57;97710.31;5013578;28;20071;-70
2021/08/26 03:21:29;;;;;;;13.60;7.38;;;;;;;13.90;61.85;97711.47;5031655;28;20022;-69
2021/08/26 03:23:54;;;;;;;12.52;6.95;;;;;;;13.91;61.53;97719.41;5031021;28;20034;-70
2021/08/26 03:26:20;;;;;;;11.88;6.22;;;;;;;13.92;61.56;97717.44;5028937;28;20026;-69
2021/08/26 03:28:45;;;;;;;13.10;6.05;;;;;;;13.90;61.42;97719.75;5031141;28;20112;-69
2021/08/26 03:31:13;;;;;;;14.60;6.45;;;;;;;13.88;61.82;97717.34;5031453;28;20528;-69
2021/08/26 03:33:39;;;;;;;13.00;7.03;;;;;;;13.88;61.80;97714.56;5031005;28;20083;-69
2021/08/26 03:36:05;;;;;;;13.60;6.80;;;;;;;13.88;61.47;97708.25;5031103;28;20029;-70
2021/08/26 03:38:30;;;;;;;12.32;6.38;;;;;;;13.87;61.81;97703.88;5030970;28;20462;-69
2021/08/26 03:40:55;;;;;;;13.73;6.85;;;;;;;13.86;61.78;97705.84;5030992;28;20038;-69
2021/08/26 03:43:21;;;;;;;13.93;7.07;;;;;;;13.89;61.63;97702.41;5030571;28;20079;-70
2021/08/26 03:45:48;;;;;;;14.23;7.30;;;;;;;13.91;61.83;97707.56;5031359;28;20083;-69
2021/08/26 03:48:14;;;;;;;13.63;6.75;;;;;;;13.93;61.75;97706.09;5030480;28;20193;-69
2021/08/26 03:50:39;;;;;;;12.77;7.03;;;;;;;13.90;62.15;97709.53;5032048;28;20116;-68
2021/08/26 03:53:05;;;;;;;13.25;6.55;;;;;;;13.92;61.78;97707.25;5031700;28;20055;-69
2021/08/26 03:55:30;;;;;;;14.00;7.03;;;;;;;13.93;61.63;97708.88;5014330;28;20055;-69
2021/08/26 03:57:55;;;;;;;13.30;6.93;;;;;;;13.96;61.71;97708.19;5013620;28;20104;-69
2021/08/26 04:00:21;;;;;;;14.15;7.15;;;;;;;13.96;61.88;97704.63;5031535;28;20072;-70
2021/08/26 04:02:46;;;;;;;13.65;6.50;;;;;;;13.95;61.84;97708.50;5031833;28;20075;-70
2021/08/26 04:05:12;;;;;;;14.63;7.00;;;;;;;13.95;62.05;97706.56;5032051;28;20032;-70
2021/08/26 04:07:37;;;;;;;11.77;5.65;;;;;;;13.97;62.01;97695.19;5013845;28;20029;-70
2021/08/26 04:10:03;;;;;;;11.50;6.50;;;;;;;13.97;62.28;97701.53;5031343;28;20025;-69
2021/08/26 04:12:28;;;;;;;10.85;5.80;;;;;;;13.99;62.10;97692.91;5031917;28;20057;-70
2021/08/26 04:14:54;;;;;;;11.50;6.03;;;;;;;14.02;62.09;97696.97;5030880;28;20362;-70
2021/08/26 04:17:20;;;;;;;13.90;6.00;;;;;;;14.03;62.27;97696.59;5031654;28;20033;-70
2021/08/26 04:19:46;;;;;;;12.77;6.13;;;;;;;13.99;62.39;97692.91;5013679;28;20037;-70
2021/08/26 04:22:13;;;;;;;14.13;9.40;;;;;;;13.96;62.63;97691.66;5031387;28;20030;-70
2021/08/26 04:24:38;;;;;;;11.82;6.20;;;;;;;13.95;62.61;97687.28;5031377;28;20385;-70
2021/08/26 04:27:04;;;;;;;15.00;6.90;;;;;;;13.93;62.63;97686.00;5030967;28;20082;-70
2021/08/26 04:29:29;;;;;;;13.02;6.05;;;;;;;13.93;62.78;97694.25;5030988;28;20021;-70
2021/08/26 04:31:55;;;;;;;10.85;5.70;;;;;;;13.91;63.02;97685.53;5031344;28;20018;-70
2021/08/26 04:34:20;;;;;;;11.57;6.10;;;;;;;13.90;62.81;97681.97;5030836;28;20021;-71
2021/08/26 04:36:46;;;;;;;12.82;6.25;;;;;;;13.91;63.11;97680.81;5031015;28;20096;-70
2021/08/26 04:39:11;;;;;;;10.73;5.95;;;;;;;13.90;63.24;97672.88;5030707;28;20025;-70
2021/08/26 04:41:38;;;;;;;11.90;5.90;;;;;;;13.91;63.27;97666.22;5031262;28;20026;-70
2021/08/26 04:44:04;;;;;;;11.38;5.63;;;;;;;13.90;63.31;97668.19;5012944;28;20036;-69
2021/08/26 04:46:29;;;;;;;10.20;5.70;;;;;;;13.88;63.47;97645.66;5031068;28;20030;-70
2021/08/26 04:48:55;;;;;;;9.73;5.53;;;;;;;13.73;64.05;97635.25;5030566;28;20025;-71
2021/08/26 04:51:20;;;;;;;12.15;6.03;;;;;;;13.62;64.27;97632.09;5013175;28;20046;-71
2021/08/26 04:53:46;;;;;;;10.05;6.22;;;;;;;13.60;64.32;97645.41;5030810;28;20018;-71
2021/08/26 04:56:11;;;;;;;10.88;5.90;;;;;;;13.63;64.33;97637.31;5030946;28;20086;-71
2021/08/26 04:58:39;;;;;;;11.27;5.68;;;;;;;13.64;64.49;97629.81;5030833;28;20025;-71
2021/08/26 05:01:04;;;;;;;11.13;5.47;;;;;;;13.66;64.38;97638.56;5012934;28;20034;-70
2021/08/26 05:03:30;;;;;;;11.52;5.60;;;;;;;13.66;64.34;97635.81;5030760;28;20556;-71
2021/08/26 05:05:55;;;;;;;10.73;5.80;;;;;;;13.73;64.66;97638.00;5030768;28;20697;-70
2021/08/26 05:08:21;;;;;;;11.07;5.80;;;;;;;13.74;64.57;97645.13;5030238;28;20091;-70
2021/08/26 05:10:46;;;;;;;16.50;6.28;;;;;;;13.73;64.74;97646.28;5030317;28;20100;-70
2021/08/26 05:13:11;;;;;;;10.23;5.10;;;;;;;13.75;64.58;97652.25;5029713;28;20017;-71
2021/08/26 05:15:37;;;;;;;10.05;5.13;;;;;;;13.69;64.80;97646.94;5030299;28;20476;-71
2021/08/26 05:18:04;;;;;;;10.15;5.60;;;;;;;13.73;64.67;97646.28;5012350;28;20028;-71
2021/08/26 05:20:29;;;;;;;11.15;5.43;;;;;;;13.76;65.20;97643.66;5030139;28;20448;-71
2021/08/26 05:22:57;;;;;;;10.80;5.97;;;;;;;13.81;65.29;97645.41;5030198;28;20108;-71
2021/08/26 05:25:22;;;;;;;11.63;5.43;;;;;;;13.84;65.02;97662.09;5030588;28;20104;-71
2021/08/26 05:27:48;;;;;;;11.38;5.50;;;;;;;13.90;64.92;97654.41;5012877;28;20113;-71
2021/08/26 05:30:13;;;;;;;11.73;5.63;;;;;;;13.91;64.94;97664.28;5012241;28;20646;-70
2021/08/26 05:32:39;;;;;;;12.02;6.05;;;;;;;13.92;64.86;97657.63;5029868;28;20037;-71
2021/08/26 05:35:04;;;;;;;10.15;5.68;;;;;;;13.95;64.67;97653.38;5012415;28;20717;-71
2021/08/26 05:37:30;;;;;;;11.15;5.45;;;;;;;13.97;65.46;97651.09;5030630;28;20513;-71
2021/08/26 05:39:55;;;;;;;11.35;6.18;;;;;;;14.00;65.02;97655.94;5012183;28;20036;-71
2021/08/26 05:42:20;;;;;;;14.63;6.55;;;;;;;14.03;65.23;97665.50;5029977;28;20367;-70
2021/08/26 05:44:46;;;;;;;10.50;5.57;;;;;;;13.99;65.63;97655.13;5029683;28;20030;-71
2021/08/26 05:47:11;;;;;;;12.02;5.63;;;;;;;13.99;65.39;97652.38;5030095;28;20022;-71
2021/08/26 05:49:37;;;;;;;9.40;5.45;;;;;;;13.99;65.63;97649.63;5030121;28;20071;-71
2021/08/26 05:52:02;;;;;;;11.10;5.63;;;;;;;13.98;65.94;97650.78;5012044;28;20064;-71
2021/08/26 05:54:28;;;;;;;9.20;5.38;;;;;;;13.97;65.89;97649.16;5029856;28;20032;-71
2021/08/26 05:56:56;;;;;;;10.32;5.38;;;;;;;14.00;65.95;97653.19;5030101;28;20029;-71
2021/08/26 05:59:21;;;;;;;12.02;5.80;;;;;;;13.98;66.64;97661.78;5029797;28;20104;-71
2021/08/26 06:01:46;;;;;;;9.73;4.97;;;;;;;13.96;66.28;97658.56;5030107;28;20460;-70
2021/08/26 06:04:12;;;;;;;8.48;4.93;;;;;;;13.95;66.04;97651.44;5029681;28;20418;-71
2021/08/26 06:06:37;;;;;;;10.05;5.30;;;;;;;13.91;66.56;97658.78;5030266;28;20033;-70
2021/08/26 06:09:02;;;;;;;8.25;5.28;;;;;;;13.88;66.86;97653.94;5029766;28;20025;-71
2021/08/26 06:11:28;;;;;;;11.00;5.97;;;;;;;13.88;67.36;97651.19;5029655;28;20482;-71
2021/08/26 06:13:53;;;;;;;9.55;5.57;;;;;;;13.90;67.44;97664.59;5029441;28;20060;-71
2021/08/26 06:16:19;;;;;;;10.73;5.70;;;;;;;13.89;67.15;97661.06;5030336;28;20120;-71
2021/08/26 06:18:44;;;;;;;11.13;5.60;;;;;;;13.89;67.16;97663.81;5029890;28;20374;-71
2021/08/26 06:21:10;;;;;;;10.18;6.25;;;;;;;13.91;67.17;97667.03;5029345;28;20112;-71
2021/08/26 06:23:36;;;;;;;12.15;5.57;;;;;;;13.90;67.13;97662.69;5029532;28;20112;-71
2021/08/26 06:26:01;;;;;;;12.70;6.82;;;;;;;13.86;67.52;97672.75;5033348;28;20108;-69
2021/08/26 06:28:27;;;;;;;10.80;6.32;;;;;;;13.84;67.73;97677.81;5015995;28;20060;-69
2021/08/26 06:30:52;;;;;;;12.00;6.90;;;;;;;13.80;67.80;97683.19;5015658;28;20026;-69
2021/08/26 06:33:18;;;;;;;13.25;6.22;;;;;;;13.76;67.77;97676.75;5015258;28;20108;-68
2021/08/26 06:35:43;;;;;;;10.90;6.53;;;;;;;13.79;67.87;97680.75;5032338;28;20488;-68
2021/08/26 06:38:09;;;;;;;11.20;6.63;;;;;;;13.79;68.04;97681.59;5031583;28;20474;-69
2021/08/26 06:40:34;;;;;;;9.40;6.10;;;;;;;13.85;68.18;97676.66;5024785;28;20125;-69
2021/08/26 06:43:00;;;;;;;9.65;5.80;;;;;;;13.83;68.12;97677.00;5012013;28;20022;-69
2021/08/26 06:45:25;;;;;;;11.20;5.75;;;;;;;13.81;68.13;97673.78;5029261;28;20048;-70
2021/08/26 06:47:51;;;;;;;10.55;5.88;;;;;;;13.77;68.33;97666.50;5025249;28;20442;-70
2021/08/26 06:50:16;;;;;;;12.15;6.47;;;;;;;13.81;68.47;97661.94;5031761;28;20108;-69
2021/08/26 06:52:41;;;;;;;11.55;6.13;;;;;;;13.82;68.34;97669.88;5014226;28;20021;-69
2021/08/26 06:55:07;;;;;;;11.38;6.47;;;;;;;13.83;69.02;97668.75;5031260;28;20059;-68
2021/08/26 06:57:33;;;;;;;10.50;6.07;;;;;;;13.81;69.04;97667.44;5030606;28;20021;-68
2021/08/26 06:59:58;;;;;;;10.90;6.25;;;;;;;13.78;68.80;97654.34;5029099;28;20068;-68
2021/08/26 07:02:23;;;;;;;11.82;6.68;;;;;;;13.74;68.88;97656.97;5030237;28;20029;-68
2021/08/26 07:04:49;;;;;;;11.25;6.18;;;;;;;13.73;68.70;97660.88;5029235;28;20433;-68
2021/08/26 07:07:14;;;;;;;10.77;6.15;;;;;;;13.73;68.78;97658.13;5031975;28;20511;-68
2021/08/26 07:09:41;;;;;;;14.07;6.45;;;;;;;13.74;68.83;97656.97;5030585;28;20091;-69
2021/08/26 07:12:06;;;;;;;11.43;6.25;;;;;;;13.76;69.15;97662.13;5014276;28;20026;-69
2021/08/26 07:14:32;;;;;;;10.32;5.80;;;;;;;13.73;69.18;97660.06;5013965;28;20045;-69
2021/08/26 07:16:57;;;;;;;9.50;5.85;;;;;;;13.75;69.09;97655.00;5030903;28;20032;-70
2021/08/26 07:19:23;;;;;;;11.23;5.95;;;;;;;13.76;69.06;97654.69;5031076;28;20068;-69
2021/08/26 07:21:48;;;;;;;19.70;6.82;;;;;;;13.78;69.95;97666.19;5030743;28;20116;-69
2021/08/26 07:24:15;;;;;;;10.25;6.30;;;;;;;13.78;70.06;97651.59;5031614;28;20133;-69
2021/08/26 07:26:41;;;;;;;9.00;5.88;;;;;;;13.72;69.65;97662.03;5031876;28;20026;-69
2021/08/26 07:29:07;;;;;;;12.05;5.93;;;;;;;13.74;69.80;97664.41;5031816;28;20030;-69
2021/08/26 07:31:32;;;;;;;11.93;6.93;;;;;;;13.69;70.49;97655.22;5031320;28;20091;-69
2021/08/26 07:33:57;;;;;;;10.43;6.53;;;;;;;13.66;70.16;97669.66;5031166;28;20029;-69
2021/08/26 07:36:23;;;;;;;11.80;6.45;;;;;;;13.66;70.30;97652.34;5030985;28;20017;-69
2021/08/26 07:38:48;;;;;;;10.73;6.13;;;;;;;13.65;70.53;97665.28;5030523;28;20152;-69
2021/08/26 07:41:14;;;;;;;10.32;5.90;;;;;;;13.65;70.14;97659.00;5030559;28;20033;-69
2021/08/26 07:43:39;;;;;;;10.50;6.07;;;;;;;13.66;70.63;97660.59;5031213;28;20026;-69
2021/08/26 07:46:06;;;;;;;10.93;6.57;;;;;;;13.67;70.32;97660.25;5031230;28;20026;-69
2021/08/26 07:48:31;;;;;;;10.85;6.32;;;;;;;13.71;70.38;97660.41;5031446;28;20491;-69
2021/08/26 07:51:02;;;;;;;12.05;6.00;;;;;;;13.73;70.36;97657.28;5030651;28;20022;-69
2021/08/26 07:53:28;;;;;;;10.40;5.82;;;;;;;13.72;70.38;97661.19;5013053;28;20029;-70
2021/08/26 07:55:54;;;;;;;11.00;5.45;;;;;;;13.76;70.66;97659.38;5029969;28;20025;-70
2021/08/26 07:58:19;;;;;;;9.77;5.60;;;;;;;13.77;70.38;97658.25;5030985;28;20055;-70
2021/08/26 08:00:45;;;;;;;10.23;5.63;;;;;;;13.80;71.11;97661.16;5029705;28;20119;-71
2021/08/26 08:03:10;;;;;;;10.98;5.80;;;;;;;13.79;70.75;97658.72;5024977;28;20199;-69
2021/08/26 08:05:35;;;;;;;11.45;6.30;;;;;;;13.81;70.80;97656.44;5030146;28;20104;-69
2021/08/26 08:08:01;;;;;;;10.77;6.63;;;;;;;13.83;70.95;97654.13;5030359;28;20438;-69
2021/08/26 08:10:26;;;;;;;14.07;6.75;;;;;;;13.84;71.06;97656.56;5029037;28;20101;-70
2021/08/26 08:12:52;;;;;;;10.82;6.10;;;;;;;13.87;71.00;97657.84;5030229;28;20026;-69
2021/08/26 08:15:17;;;;;;;11.27;6.78;;;;;;;13.87;71.13;97657.84;5030804;28;20044;-70
2021/08/26 08:17:42;;;;;;;9.80;5.60;;;;;;;13.91;70.70;97652.44;5029757;28;20021;-70
2021/08/26 08:20:10;;;;;;;11.40;6.20;;;;;;;13.94;71.34;97647.06;5030268;28;21773;-70
2021/08/26 08:22:36;;;;;;;8.65;5.57;;;;;;;13.97;71.01;97648.34;5029385;28;20120;-70
2021/08/26 08:25:03;;;;;;;11.80;6.20;;;;;;;14.02;71.23;97648.13;5029677;28;20080;-70
2021/08/26 08:27:29;;;;;;;10.93;5.90;;;;;;;14.08;71.26;97652.28;5013438;28;20061;-70
2021/08/26 08:29:54;;;;;;;9.38;6.00;;;;;;;14.09;71.53;97650.31;5012238;28;20127;-70
2021/08/26 08:32:19;;;;;;;11.57;5.82;;;;;;;14.09;71.44;97642.88;5028780;28;20033;-71
2021/08/26 08:34:45;;;;;;;9.88;5.72;;;;;;;14.11;71.26;97645.28;5030295;28;20029;-68
2021/08/26 08:37:10;;;;;;;9.30;5.43;;;;;;;14.13;71.94;97640.22;5030714;28;20543;-70
2021/08/26 08:39:36;;;;;;;8.93;5.18;;;;;;;14.13;71.40;97652.09;5030091;28;20077;-72
2021/08/26 08:42:01;;;;;;;12.73;6.13;;;;;;;14.16;71.69;97649.78;5030095;28;20028;-72
2021/08/26 08:44:28;;;;;;;9.73;5.85;;;;;;;14.18;71.87;97644.75;5028627;28;20117;-70
2021/08/26 08:46:57;;;;;;;9.90;5.95;;;;;;;14.19;71.80;97651.88;5028719;28;20033;-70
2021/08/26 08:49:23;;;;;;;9.47;6.13;;;;;;;14.19;72.21;97655.41;5029326;28;20376;-69
2021/08/26 08:51:51;;;;;;;9.90;6.10;;;;;;;14.16;71.56;97661.63;5030097;28;20091;-71
2021/08/26 08:54:17;;;;;;;13.20;5.88;;;;;;;14.20;72.26;97659.00;5027424;28;20040;-73
2021/08/26 08:56:42;;;;;;;10.30;5.72;;;;;;;14.21;71.51;97661.41;5029279;28;20025;-70
2021/08/26 08:59:07;;;;;;;10.63;5.93;;;;;;;14.26;71.91;97655.69;5029338;28;20061;-71
2021/08/26 09:01:33;;;;;;;10.68;6.22;;;;;;;14.30;72.31;97661.31;5030287;28;20025;-70
2021/08/26 09:03:58;;;;;;;11.07;6.30;;;;;;;14.28;71.90;97656.16;5011643;28;20112;-69
2021/08/26 09:06:38;;;;;;;10.60;5.95;;;;;;;14.31;71.72;97659.38;5029591;28;20029;-71
2021/08/26 09:09:05;;;;;;;10.13;6.10;;;;;;;14.31;72.24;97657.41;5029034;28;20037;-69
2021/08/26 09:11:31;;;;;;;11.38;6.32;;;;;;;14.34;71.94;97662.25;5029546;28;20120;-71
2021/08/26 09:14:07;;;;;;;11.82;6.75;;;;;;;14.36;72.15;97659.94;5028336;28;20117;-69
2021/08/26 09:16:40;;;;;;;9.70;6.10;;;;;;;14.35;72.17;97663.84;5028892;28;20071;-71
2021/08/26 09:19:39;;;;;;;10.90;6.32;;;;;;;14.36;71.90;97659.94;5028478;28;20056;-69
2021/08/26 09:22:06;;;;;;;11.55;6.40;;;;;;;14.39;72.29;97669.50;5017065;28;20391;-69
2021/08/26 09:24:50;;;;;;;10.27;6.10;;;;;;;14.41;72.02;97662.50;5028104;28;20706;-69
2021/08/26 09:27:35;;;;;;;10.23;5.95;;;;;;;14.43;72.05;97662.16;5028636;28;20064;-69
2021/08/26 09:30:19;;;;;;;10.18;6.00;;;;;;;14.43;71.97;97656.66;5028480;28;20037;-70
2021/08/26 09:32:58;;;;;;;9.73;6.50;;;;;;;14.44;72.12;97658.25;5028975;28;20461;-70
2021/08/26 09:35:33;;;;;;;10.30;6.33;;;;;;;14.44;72.11;97658.25;5011505;28;20382;-70
2021/08/26 09:38:01;;;;;;;12.00;6.95;;;;;;;14.48;73.01;97656.41;5029397;28;20037;-70
2021/08/26 09:40:40;;;;;;;11.02;7.28;;;;;;;14.42;72.79;97661.34;5011211;28;20056;-71
2021/08/26 09:43:06;;;;;;;11.37;6.60;;;;;;;14.41;72.47;97645.94;5029101;28;20242;-70
2021/08/26 09:45:33;;;;;;;10.20;6.60;;;;;;;14.44;72.57;97648.03;5028751;28;20044;-69
2021/08/26 09:48:02;;;;;;;12.90;7.97;;;;;;;14.50;72.67;97642.28;5027697;28;20022;-70
2021/08/26 09:50:41;;;;;;;9.65;6.53;;;;;;;14.55;72.88;97645.63;5029136;28;20037;-69
2021/08/26 09:53:07;;;;;;;11.40;7.22;;;;;;;14.57;72.22;97643.31;5026176;28;20041;-70
2021/08/26 09:55:55;;;;;;;12.43;6.95;;;;;;;14.60;72.23;97639.09;5026189;28;21689;-69
2021/08/26 09:58:23;;;;;;;11.52;7.80;;;;;;;14.67;73.16;97641.28;5008846;28;20120;-69
2021/08/26 10:00:49;;;;;;;10.63;7.72;;;;;;;14.68;72.39;97640.91;5030995;28;20116;-71
2021/08/26 10:03:16;;;;;;;13.60;8.50;;;;;;;14.73;72.79;97637.16;5031187;28;20037;-71
2021/08/26 10:05:43;;;;;;;14.40;8.85;;;;;;;14.80;72.81;97633.81;5031118;28;20123;-71
2021/08/26 10:08:10;;;;;;;13.75;9.50;;;;;;;14.85;72.64;97637.19;5031911;28;20509;-71
2021/08/26 10:10:39;;;;;;;15.25;9.18;;;;;;;14.93;72.31;97626.34;5032724;28;20028;-72
2021/08/26 10:13:05;;;;;;;16.13;9.60;;;;;;;14.99;72.42;97631.31;5013414;28;20048;-69
2021/08/26 10:15:30;;;;;;;13.68;8.90;;;;;;;15.05;72.58;97628.31;5031356;28;20042;-70
2021/08/26 10:17:57;;;;;;;12.80;8.90;;;;;;;15.10;72.73;97636.34;5031852;28;20394;-71
2021/08/26 10:20:23;;;;;;;12.88;9.38;;;;;;;15.13;72.29;97627.38;5031019;28;20095;-72
2021/08/26 10:22:50;;;;;;;12.07;8.43;;;;;;;15.17;72.43;97629.09;5031740;28;20037;-71
2021/08/26 10:25:16;;;;;;;13.75;8.13;;;;;;;15.21;72.53;97622.88;5029787;28;20029;-69
2021/08/26 10:27:44;;;;;;;11.88;7.32;;;;;;;15.26;72.62;97626.22;5032264;28;20355;-70
2021/08/26 10:30:27;;;;;;;13.38;8.15;;;;;;;15.26;72.41;97628.19;5013505;28;20489;-71
2021/08/26 10:33:23;;;;;;;12.23;7.22;;;;;;;15.25;72.28;97627.34;5030910;28;20065;-70
2021/08/26 10:35:52;;;;;;;11.85;7.60;;;;;;;15.26;71.74;97633.69;5002643;28;20124;-70
2021/08/26 10:38:24;;;;;;;13.77;8.18;;;;;;;15.27;71.72;97633.34;5029959;28;20049;-69
2021/08/26 10:40:50;;;;;;;12.43;8.13;;;;;;;15.26;71.81;97633.69;5030647;28;20033;-71
2021/08/26 10:43:36;;;;;;;12.98;7.50;;;;;;;15.23;72.31;97637.16;5011475;28;20034;-71
2021/08/26 10:46:05;;;;;;;13.55;9.25;;;;;;;15.20;71.97;97638.63;5028848;28;20092;-71
2021/08/26 10:48:31;;;;;;;19.15;14.55;;;;;;;15.21;71.72;97631.19;5029542;28;20033;-69
2021/08/26 10:51:14;;;;;;;11.65;7.70;;;;;;;15.18;71.72;97636.25;5030638;28;20061;-69
2021/08/26 10:53:42;;;;;;;12.02;7.82;;;;;;;15.21;72.19;97631.97;5030424;28;20043;-69
2021/08/26 10:56:26;;;;;;;14.75;8.15;;;;;;;15.24;72.11;97630.47;5032263;28;20037;-70
2021/08/26 10:58:56;;;;;;;12.07;7.68;;;;;;;15.27;72.08;97621.50;5029614;28;20027;-70
2021/08/26 11:01:28;;;;;;;13.57;8.10;;;;;;;15.31;71.90;97625.16;5030842;28;20524;-70
2021/08/26 11:03:55;;;;;;;12.80;8.60;;;;;;;15.35;71.76;97626.06;5029688;28;20036;-69
2021/08/26 11:06:22;;;;;;;12.73;8.05;;;;;;;15.38;71.92;97622.59;5029246;28;20069;-69
2021/08/26 11:08:52;;;;;;;11.73;7.53;;;;;;;15.46;72.35;97626.41;5011941;28;20052;-68
2021/08/26 11:11:27;;;;;;;10.82;6.63;;;;;;;15.55;72.42;97640.09;5012259;28;20038;-69
2021/08/26 11:13:59;;;;;;;11.50;7.32;;;;;;;15.53;72.12;97629.38;5031365;28;20029;-69
2021/08/26 11:16:24;;;;;;;10.05;7.13;;;;;;;15.59;72.20;97630.72;5013838;28;20511;-69
2021/08/26 11:18:55;;;;;;;9.52;6.72;;;;;;;15.64;71.93;97626.94;5030807;28;20026;-68
2021/08/26 11:21:48;;;;;;;12.98;7.70;;;;;;;15.71;72.04;97626.31;5032003;28;20033;-69
2021/08/26 11:24:19;;;;;;;10.05;6.93;;;;;;;15.75;71.83;97632.75;5031435;28;20497;-70
2021/08/26 11:26:57;;;;;;;11.20;7.70;;;;;;;15.69;71.38;97637.72;5031418;28;20108;-70
2021/08/26 11:29:22;;;;;;;11.38;7.13;;;;;;;15.71;71.74;97640.94;5031627;28;20034;-69
2021/08/26 11:31:54;;;;;;;12.40;7.55;;;;;;;15.72;71.75;97633.47;5014108;28;20243;-71